createdAt,value
2018-05-18T00:00:22.284Z,18.36
2018-05-18T00:00:53.489Z,18.38
2018-05-18T00:01:24.701Z,18.36
2018-05-18T00:01:55.924Z,18.35
2018-05-18T00:02:27.137Z,18.35
2018-05-18T00:02:58.342Z,18.35
2018-05-18T00:03:29.550Z,18.34
2018-05-18T00:04:00.815Z,18.34
2018-05-18T00:04:32.025Z,18.33
2018-05-18T00:05:03.244Z,18.32
2018-05-18T00:05:34.453Z,18.31
2018-05-18T00:06:05.668Z,18.31
2018-05-18T00:06:36.869Z,18.30
2018-05-18T00:07:08.073Z,18.29
2018-05-18T00:07:39.323Z,18.28
2018-05-18T00:08:10.535Z,18.27
2018-05-18T00:08:41.757Z,18.26
2018-05-18T00:09:13.006Z,18.26
2018-05-18T00:09:44.213Z,18.24
2018-05-18T00:10:15.448Z,18.24
2018-05-18T00:10:46.672Z,18.24
2018-05-18T00:11:17.904Z,18.23
2018-05-18T00:11:49.121Z,17.83
2018-05-18T00:12:20.373Z,18.20
2018-05-18T00:12:51.627Z,18.20
2018-05-18T00:13:22.834Z,18.18
2018-05-18T00:13:54.063Z,18.02
2018-05-18T00:14:25.310Z,18.13
2018-05-18T00:14:56.531Z,18.11
2018-05-18T00:15:27.745Z,18.09
2018-05-18T00:15:58.974Z,18.10
2018-05-18T00:16:30.197Z,18.09
2018-05-18T00:17:01.422Z,18.07
2018-05-18T00:17:32.633Z,18.06
2018-05-18T00:18:04.873Z,18.05
2018-05-18T00:18:36.119Z,18.05
2018-05-18T00:19:07.325Z,18.05
2018-05-18T00:19:38.547Z,18.05
2018-05-18T00:20:09.785Z,18.02
2018-05-18T00:20:40.989Z,18.06
2018-05-18T00:21:12.275Z,18.09
2018-05-18T00:21:43.490Z,18.10
2018-05-18T00:22:14.716Z,18.10
2018-05-18T00:22:45.941Z,18.08
2018-05-18T00:23:17.178Z,18.07
2018-05-18T00:23:48.465Z,18.05
2018-05-18T00:24:19.732Z,18.05
2018-05-18T00:24:50.942Z,18.02
2018-05-18T00:25:22.149Z,18.03
2018-05-18T00:25:53.349Z,18.03
2018-05-18T00:26:24.564Z,18.03
2018-05-18T00:26:55.771Z,18.02
2018-05-18T00:27:26.991Z,18.01
2018-05-18T00:27:58.211Z,18.02
2018-05-18T00:28:29.417Z,18.01
2018-05-18T00:29:02.034Z,18.02
2018-05-18T00:29:35.444Z,18.00
2018-05-18T00:30:07.431Z,17.96
2018-05-18T00:30:39.100Z,17.95
2018-05-18T00:31:11.560Z,17.93
2018-05-18T00:31:44.380Z,17.91
2018-05-18T00:33:01.968Z,17.84
2018-05-18T00:34:10.779Z,17.82
2018-05-18T00:34:42.718Z,17.78
2018-05-18T00:35:14.351Z,17.77
2018-05-18T00:35:45.700Z,17.76
2018-05-18T00:36:18.617Z,17.74
2018-05-18T00:36:50.914Z,17.70
2018-05-18T00:37:22.719Z,17.68
2018-05-18T00:37:54.146Z,17.67
2018-05-18T00:38:25.352Z,17.63
2018-05-18T00:38:56.585Z,17.60
2018-05-18T00:39:27.797Z,17.57
2018-05-18T00:39:59.037Z,17.52
2018-05-18T00:40:30.249Z,17.49
2018-05-18T00:41:01.488Z,17.48
2018-05-18T00:41:32.697Z,17.48
2018-05-18T00:42:03.901Z,17.50
2018-05-18T00:42:35.105Z,17.51
2018-05-18T00:43:06.324Z,17.52
2018-05-18T00:43:37.525Z,17.53
2018-05-18T00:44:08.741Z,17.53
2018-05-18T00:44:39.945Z,17.51
2018-05-18T00:45:11.159Z,17.50
2018-05-18T00:45:42.365Z,17.48
2018-05-18T00:46:13.616Z,17.45
2018-05-18T00:46:44.837Z,17.40
2018-05-18T00:47:16.055Z,17.35
2018-05-18T00:47:47.269Z,17.31
2018-05-18T00:48:18.481Z,17.28
2018-05-18T00:48:49.697Z,17.25
2018-05-18T00:49:20.900Z,17.21
2018-05-18T00:49:52.133Z,17.18
2018-05-18T00:50:23.411Z,17.17
2018-05-18T00:50:54.593Z,17.15
2018-05-18T00:51:25.803Z,17.14
2018-05-18T00:51:57.017Z,17.12
2018-05-18T00:52:28.225Z,17.10
2018-05-18T00:52:59.427Z,17.09
2018-05-18T00:53:30.673Z,17.07
2018-05-18T00:54:01.881Z,17.05
2018-05-18T00:54:33.108Z,17.02
2018-05-18T00:55:04.322Z,17.01
2018-05-18T00:55:35.535Z,17.01
2018-05-18T00:56:06.753Z,17.03
2018-05-18T00:56:38.013Z,17.05
2018-05-18T00:57:09.265Z,17.07
2018-05-18T00:57:40.484Z,17.06
2018-05-18T00:58:11.698Z,17.09
2018-05-18T00:58:42.917Z,17.08
2018-05-18T00:59:14.121Z,17.12
2018-05-18T00:59:45.321Z,17.13
2018-05-18T01:00:16.526Z,17.15
2018-05-18T01:00:47.776Z,17.16
2018-05-18T01:01:19.009Z,17.17
2018-05-18T01:01:50.221Z,17.17
2018-05-18T01:02:21.428Z,17.12
2018-05-18T01:02:52.637Z,17.09
2018-05-18T01:03:23.908Z,17.07
2018-05-18T01:03:55.119Z,17.06
2018-05-18T01:04:26.370Z,17.06
2018-05-18T01:04:57.582Z,17.06
2018-05-18T01:05:28.789Z,17.05
2018-05-18T01:06:00.038Z,17.05
2018-05-18T01:06:31.250Z,17.05
2018-05-18T01:07:02.458Z,17.03
2018-05-18T01:07:33.679Z,17.02
2018-05-18T01:08:04.893Z,17.02
2018-05-18T01:08:36.125Z,17.01
2018-05-18T01:09:07.348Z,16.96
2018-05-18T01:09:38.601Z,16.92
2018-05-18T01:10:09.813Z,16.90
2018-05-18T01:10:41.019Z,16.87
2018-05-18T01:11:12.853Z,16.84
2018-05-18T01:11:44.068Z,16.83
2018-05-18T01:12:15.276Z,16.83
2018-05-18T01:12:46.481Z,16.81
2018-05-18T01:13:17.688Z,16.79
2018-05-18T01:13:48.897Z,16.78
2018-05-18T01:14:20.107Z,16.78
2018-05-18T01:14:51.359Z,16.77
2018-05-18T01:15:22.605Z,16.76
2018-05-18T01:15:53.889Z,16.73
2018-05-18T01:16:25.074Z,16.72
2018-05-18T01:16:56.282Z,16.69
2018-05-18T01:17:27.529Z,16.68
2018-05-18T01:17:58.740Z,16.66
2018-05-18T01:18:29.962Z,16.64
2018-05-18T01:19:01.181Z,16.62
2018-05-18T01:19:32.421Z,16.60
2018-05-18T01:20:03.703Z,16.41
2018-05-18T01:20:36.072Z,16.56
2018-05-18T01:21:07.341Z,16.52
2018-05-18T01:22:15.930Z,16.40
2018-05-18T01:22:48.250Z,16.35
2018-05-18T01:23:20.264Z,16.29
2018-05-18T01:23:52.322Z,16.24
2018-05-18T01:24:24.713Z,16.22
2018-05-18T01:24:56.849Z,16.19
2018-05-18T01:25:28.893Z,16.16
2018-05-18T01:26:00.280Z,16.13
2018-05-18T01:26:31.668Z,16.11
2018-05-18T01:27:02.993Z,16.09
2018-05-18T01:27:34.338Z,16.06
2018-05-18T01:28:05.620Z,16.04
2018-05-18T01:28:37.949Z,16.00
2018-05-18T01:29:09.341Z,15.98
2018-05-18T01:29:40.736Z,15.33
2018-05-18T01:30:13.072Z,15.98
2018-05-18T01:30:44.437Z,16.00
2018-05-18T01:31:15.681Z,15.99
2018-05-18T01:31:46.892Z,15.99
2018-05-18T01:32:18.188Z,16.00
2018-05-18T01:32:49.437Z,16.03
2018-05-18T01:33:20.659Z,16.04
2018-05-18T01:33:51.879Z,16.03
2018-05-18T01:34:23.091Z,16.03
2018-05-18T01:34:54.381Z,16.01
2018-05-18T01:35:25.602Z,15.98
2018-05-18T01:35:56.821Z,15.97
2018-05-18T01:36:28.067Z,15.95
2018-05-18T01:36:59.283Z,15.93
2018-05-18T01:37:30.512Z,15.93
2018-05-18T01:38:01.717Z,15.91
2018-05-18T01:38:32.937Z,15.90
2018-05-18T01:39:04.149Z,15.90
2018-05-18T01:39:35.360Z,15.88
2018-05-18T01:40:06.570Z,15.86
2018-05-18T01:40:37.777Z,15.84
2018-05-18T01:41:08.992Z,15.85
2018-05-18T01:41:40.250Z,15.86
2018-05-18T01:42:11.464Z,15.86
2018-05-18T01:42:42.685Z,15.84
2018-05-18T01:43:13.901Z,15.82
2018-05-18T01:43:45.151Z,15.83
2018-05-18T01:44:16.357Z,15.80
2018-05-18T01:44:47.561Z,15.77
2018-05-18T01:45:18.752Z,15.77
2018-05-18T01:45:49.961Z,15.76
2018-05-18T01:46:21.176Z,15.75
2018-05-18T01:46:52.423Z,15.76
2018-05-18T01:47:23.633Z,15.78
2018-05-18T01:47:54.894Z,15.77
2018-05-18T01:48:26.105Z,15.74
2018-05-18T01:48:57.343Z,15.72
2018-05-18T01:49:28.544Z,15.70
2018-05-18T01:49:59.747Z,15.68
2018-05-18T01:50:30.965Z,15.69
2018-05-18T01:51:02.170Z,15.70
2018-05-18T01:51:33.391Z,15.70
2018-05-18T01:52:04.615Z,15.71
2018-05-18T01:52:35.881Z,15.72
2018-05-18T01:53:07.133Z,15.71
2018-05-18T01:53:38.344Z,15.70
2018-05-18T01:54:09.557Z,15.71
2018-05-18T01:54:40.788Z,15.72
2018-05-18T01:55:12.028Z,15.71
2018-05-18T01:55:43.252Z,15.71
2018-05-18T01:56:14.930Z,15.70
2018-05-18T01:56:46.136Z,15.71
2018-05-18T01:57:17.381Z,15.72
2018-05-18T01:57:48.598Z,15.72
2018-05-18T01:58:19.824Z,15.73
2018-05-18T01:58:51.062Z,15.74
2018-05-18T01:59:22.281Z,15.75
2018-05-18T01:59:53.529Z,15.75
2018-05-18T02:00:24.790Z,15.76
2018-05-18T02:00:56.025Z,15.77
2018-05-18T02:01:27.240Z,15.79
2018-05-18T02:01:58.457Z,15.80
2018-05-18T02:02:29.699Z,15.80
2018-05-18T02:03:00.917Z,15.82
2018-05-18T02:03:32.129Z,15.82
2018-05-18T02:04:03.389Z,15.82
2018-05-18T02:04:34.603Z,15.82
2018-05-18T02:05:05.857Z,15.74
2018-05-18T02:05:37.089Z,15.79
2018-05-18T02:06:08.301Z,15.76
2018-05-18T02:06:39.500Z,15.75
2018-05-18T02:07:10.708Z,15.74
2018-05-18T02:07:41.989Z,15.73
2018-05-18T02:08:13.237Z,15.70
2018-05-18T02:08:44.483Z,15.68
2018-05-18T02:09:15.707Z,15.66
2018-05-18T02:09:46.930Z,15.66
2018-05-18T02:10:18.156Z,15.68
2018-05-18T02:10:49.379Z,15.67
2018-05-18T02:11:20.592Z,15.65
2018-05-18T02:11:51.807Z,15.64
2018-05-18T02:12:23.012Z,15.64
2018-05-18T02:12:54.269Z,15.63
2018-05-18T02:13:25.477Z,15.61
2018-05-18T02:13:56.685Z,15.60
2018-05-18T02:14:27.890Z,15.58
2018-05-18T02:14:59.114Z,15.59
2018-05-18T02:15:30.347Z,15.58
2018-05-18T02:16:01.582Z,15.57
2018-05-18T02:16:32.805Z,15.56
2018-05-18T02:17:04.025Z,15.54
2018-05-18T02:17:35.295Z,15.54
2018-05-18T02:18:06.513Z,15.51
2018-05-18T02:18:37.724Z,15.51
2018-05-18T02:19:08.928Z,15.50
2018-05-18T02:19:40.137Z,15.48
2018-05-18T02:20:11.373Z,15.45
2018-05-18T02:20:42.584Z,15.43
2018-05-18T02:21:13.797Z,15.43
2018-05-18T02:21:45.017Z,15.40
2018-05-18T02:22:16.227Z,15.38
2018-05-18T02:22:47.508Z,15.37
2018-05-18T02:23:18.728Z,15.38
2018-05-18T02:23:49.954Z,15.36
2018-05-18T02:24:21.180Z,15.36
2018-05-18T02:24:52.382Z,15.37
2018-05-18T02:25:23.630Z,15.38
2018-05-18T02:25:54.856Z,15.38
2018-05-18T02:26:26.083Z,15.38
2018-05-18T02:26:57.293Z,15.38
2018-05-18T02:27:28.547Z,15.37
2018-05-18T02:27:59.773Z,15.38
2018-05-18T02:28:30.984Z,15.38
2018-05-18T02:29:02.224Z,15.38
2018-05-18T02:29:33.443Z,15.38
2018-05-18T02:30:04.662Z,15.35
2018-05-18T02:30:35.887Z,15.38
2018-05-18T02:31:07.099Z,15.37
2018-05-18T02:31:38.308Z,15.39
2018-05-18T02:32:09.521Z,15.40
2018-05-18T02:32:40.731Z,15.38
2018-05-18T02:33:12.000Z,15.36
2018-05-18T02:33:43.213Z,15.36
2018-05-18T02:34:14.470Z,15.33
2018-05-18T02:34:45.678Z,15.33
2018-05-18T02:35:16.894Z,15.34
2018-05-18T02:35:48.112Z,15.34
2018-05-18T02:36:19.326Z,15.33
2018-05-18T02:36:50.549Z,15.31
2018-05-18T02:37:21.789Z,15.26
2018-05-18T02:37:52.988Z,15.22
2018-05-18T02:38:24.226Z,15.19
2018-05-18T02:38:55.446Z,15.19
2018-05-18T02:39:26.695Z,15.16
2018-05-18T02:39:57.893Z,15.14
2018-05-18T02:40:29.130Z,15.13
2018-05-18T02:41:00.342Z,15.12
2018-05-18T02:41:31.583Z,15.09
2018-05-18T02:42:02.790Z,15.09
2018-05-18T02:42:34.009Z,15.07
2018-05-18T02:43:05.248Z,15.08
2018-05-18T02:43:36.475Z,15.07
2018-05-18T02:44:07.704Z,15.05
2018-05-18T02:44:38.949Z,15.06
2018-05-18T02:45:10.189Z,15.06
2018-05-18T02:45:41.497Z,15.04
2018-05-18T02:46:12.706Z,15.02
2018-05-18T02:46:43.949Z,15.02
2018-05-18T02:47:15.173Z,15.04
2018-05-18T02:47:46.410Z,15.04
2018-05-18T02:48:17.672Z,15.06
2018-05-18T02:48:48.931Z,15.07
2018-05-18T02:49:20.153Z,15.08
2018-05-18T02:49:51.376Z,15.11
2018-05-18T02:50:22.596Z,15.11
2018-05-18T02:50:53.875Z,15.11
2018-05-18T02:51:25.089Z,15.10
2018-05-18T02:51:56.358Z,15.10
2018-05-18T02:52:27.609Z,15.10
2018-05-18T02:52:58.831Z,15.11
2018-05-18T02:53:30.046Z,15.12
2018-05-18T02:54:01.249Z,15.15
2018-05-18T02:54:32.456Z,15.16
2018-05-18T02:55:03.679Z,15.15
2018-05-18T02:55:34.891Z,15.15
2018-05-18T02:56:06.097Z,15.15
2018-05-18T02:56:37.311Z,15.17
2018-05-18T02:57:08.571Z,15.19
2018-05-18T02:57:39.806Z,15.21
2018-05-18T02:58:11.055Z,15.23
2018-05-18T02:58:42.287Z,15.25
2018-05-18T02:59:13.499Z,15.24
2018-05-18T02:59:44.708Z,15.26
2018-05-18T03:00:15.924Z,15.24
2018-05-18T03:00:47.137Z,15.24
2018-05-18T03:01:18.374Z,15.25
2018-05-18T03:01:49.596Z,15.25
2018-05-18T03:02:20.863Z,15.26
2018-05-18T03:02:52.073Z,15.27
2018-05-18T03:03:23.281Z,15.28
2018-05-18T03:03:54.488Z,15.28
2018-05-18T03:04:25.695Z,15.28
2018-05-18T03:04:56.922Z,15.28
2018-05-18T03:05:28.137Z,15.28
2018-05-18T03:05:59.363Z,15.28
2018-05-18T03:06:30.580Z,15.32
2018-05-18T03:07:01.785Z,15.35
2018-05-18T03:07:33.057Z,15.35
2018-05-18T03:08:04.270Z,15.37
2018-05-18T03:08:35.472Z,15.38
2018-05-18T03:09:06.680Z,15.37
2018-05-18T03:09:37.897Z,15.37
2018-05-18T03:10:09.118Z,15.42
2018-05-18T03:10:40.338Z,15.45
2018-05-18T03:11:11.545Z,15.48
2018-05-18T03:11:42.754Z,15.51
2018-05-18T03:12:13.989Z,15.54
2018-05-18T03:12:45.253Z,15.59
2018-05-18T03:13:16.561Z,15.63
2018-05-18T03:13:48.845Z,15.68
2018-05-18T03:14:20.493Z,15.74
2018-05-18T03:14:51.874Z,15.78
2018-05-18T03:15:23.293Z,15.81
2018-05-18T03:15:54.647Z,15.84
2018-05-18T03:16:28.066Z,15.86
2018-05-18T03:17:00.051Z,15.92
2018-05-18T03:17:31.619Z,15.97
2018-05-18T03:18:03.536Z,16.02
2018-05-18T03:18:34.917Z,16.08
2018-05-18T03:19:07.191Z,16.16
2018-05-18T03:19:39.828Z,16.26
2018-05-18T03:20:11.120Z,16.36
2018-05-18T03:20:42.887Z,16.44
2018-05-18T03:21:15.854Z,16.51
2018-05-18T03:21:49.953Z,16.60
2018-05-18T03:22:21.566Z,16.68
2018-05-18T03:22:52.905Z,16.77
2018-05-18T03:23:26.483Z,16.86
2018-05-18T03:23:57.836Z,16.94
2018-05-18T03:24:29.127Z,17.00
2018-05-18T03:25:00.529Z,17.06
2018-05-18T03:25:39.567Z,17.09
2018-05-18T03:26:12.400Z,17.13
2018-05-18T03:26:44.539Z,17.14
2018-05-18T03:27:17.346Z,17.19
2018-05-18T03:27:48.825Z,17.22
2018-05-18T03:28:21.053Z,17.29
2018-05-18T03:28:52.642Z,17.36
2018-05-18T03:29:24.854Z,17.46
2018-05-18T03:29:56.466Z,17.57
2018-05-18T03:30:28.029Z,17.68
2018-05-18T03:31:02.040Z,17.81
2018-05-18T03:31:34.443Z,17.91
2018-05-18T03:32:06.521Z,17.98
2018-05-18T03:32:38.694Z,18.00
2018-05-18T03:33:12.026Z,18.02
2018-05-18T03:33:44.313Z,18.12
2018-05-18T03:34:16.462Z,18.20
2018-05-18T03:34:49.137Z,18.26
2018-05-18T03:35:22.992Z,18.24
2018-05-18T03:35:56.344Z,18.24
2018-05-18T03:36:27.775Z,18.28
2018-05-18T03:37:01.730Z,18.05
2018-05-18T03:38:10.912Z,18.60
2018-05-18T03:38:43.175Z,18.73
2018-05-18T03:39:57.683Z,19.11
2018-05-18T03:40:29.001Z,19.29
2018-05-18T03:41:00.223Z,19.48
2018-05-18T03:41:31.451Z,19.64
2018-05-18T03:42:02.690Z,19.83
2018-05-18T03:42:33.923Z,20.00
2018-05-18T03:43:05.128Z,20.20
2018-05-18T03:43:36.349Z,20.41
2018-05-18T03:44:07.556Z,20.58
2018-05-18T03:44:38.828Z,20.72
2018-05-18T03:45:10.345Z,20.85
2018-05-18T03:45:41.549Z,20.94
2018-05-18T03:46:12.756Z,21.02
2018-05-18T03:46:43.959Z,21.12
2018-05-18T03:47:15.229Z,21.21
2018-05-18T03:47:46.475Z,21.25
2018-05-18T03:48:17.681Z,21.34
2018-05-18T03:48:48.873Z,21.44
2018-05-18T03:49:20.093Z,21.55
2018-05-18T03:49:51.309Z,21.70
2018-05-18T03:50:22.582Z,21.84
2018-05-18T03:50:53.788Z,22.00
2018-05-18T03:51:25.020Z,22.15
2018-05-18T03:51:56.258Z,22.30
2018-05-18T03:52:27.486Z,22.43
2018-05-18T03:52:58.693Z,22.56
2018-05-18T03:53:30.193Z,22.71
2018-05-18T03:54:01.439Z,22.83
2018-05-18T03:54:32.669Z,22.96
2018-05-18T03:55:03.880Z,23.07
2018-05-18T03:55:35.148Z,23.18
2018-05-18T03:56:06.353Z,23.28
2018-05-18T03:56:37.576Z,23.39
2018-05-18T03:57:08.793Z,23.41
2018-05-18T03:57:40.013Z,23.59
2018-05-18T03:58:11.228Z,23.70
2018-05-18T03:58:42.449Z,23.84
2018-05-18T03:59:13.696Z,23.97
2018-05-18T03:59:44.938Z,24.07
2018-05-18T04:00:16.162Z,24.18
2018-05-18T04:00:47.433Z,24.27
2018-05-18T04:01:18.673Z,24.32
2018-05-18T04:01:49.912Z,24.30
2018-05-18T04:02:21.142Z,24.22
2018-05-18T04:02:52.341Z,24.16
2018-05-18T04:03:23.554Z,24.08
2018-05-18T04:03:54.775Z,24.00
2018-05-18T04:04:26.017Z,23.85
2018-05-18T04:04:57.240Z,23.60
2018-05-18T04:05:28.452Z,23.32
2018-05-18T04:05:59.710Z,23.05
2018-05-18T04:06:30.921Z,22.70
2018-05-18T04:07:02.742Z,22.42
2018-05-18T04:07:33.952Z,22.20
2018-05-18T04:08:05.151Z,21.92
2018-05-18T04:08:36.373Z,21.80
2018-05-18T04:09:07.587Z,21.68
2018-05-18T04:09:38.805Z,21.63
2018-05-18T04:10:10.035Z,21.65
2018-05-18T04:10:41.249Z,21.75
2018-05-18T04:11:12.529Z,21.90
2018-05-18T04:11:43.799Z,22.11
2018-05-18T04:12:15.017Z,22.33
2018-05-18T04:12:46.261Z,22.49
2018-05-18T04:13:17.481Z,22.65
2018-05-18T04:13:48.742Z,22.90
2018-05-18T04:14:19.962Z,23.15
2018-05-18T04:14:51.188Z,23.32
2018-05-18T04:15:22.409Z,23.45
2018-05-18T04:15:53.637Z,23.48
2018-05-18T04:16:24.885Z,23.39
2018-05-18T04:16:56.113Z,23.26
2018-05-18T04:17:27.334Z,22.96
2018-05-18T04:17:58.556Z,22.83
2018-05-18T04:18:29.764Z,22.56
2018-05-18T04:19:00.990Z,22.45
2018-05-18T04:19:33.505Z,22.38
2018-05-18T04:20:04.721Z,22.34
2018-05-18T04:20:35.945Z,22.36
2018-05-18T04:21:07.161Z,22.50
2018-05-18T04:21:38.476Z,22.64
2018-05-18T04:22:09.712Z,22.74
2018-05-18T04:22:40.929Z,22.79
2018-05-18T04:23:12.193Z,22.75
2018-05-18T04:23:43.425Z,22.77
2018-05-18T04:24:14.645Z,22.74
2018-05-18T04:24:45.853Z,22.63
2018-05-18T04:25:17.065Z,22.56
2018-05-18T04:25:48.288Z,22.41
2018-05-18T04:26:19.501Z,22.27
2018-05-18T04:26:50.772Z,22.17
2018-05-18T04:27:21.992Z,22.09
2018-05-18T04:27:53.239Z,21.99
2018-05-18T04:28:24.435Z,21.95
2018-05-18T04:28:55.662Z,21.94
2018-05-18T04:29:26.876Z,21.88
2018-05-18T04:29:58.103Z,21.81
2018-05-18T04:30:29.484Z,21.70
2018-05-18T04:31:00.639Z,21.56
2018-05-18T04:31:31.883Z,21.45
2018-05-18T04:32:03.109Z,21.40
2018-05-18T04:32:34.375Z,21.26
2018-05-18T04:33:05.601Z,21.17
2018-05-18T04:33:36.826Z,21.08
2018-05-18T04:34:08.045Z,21.04
2018-05-18T04:34:39.272Z,21.00
2018-05-18T04:35:10.497Z,20.95
2018-05-18T04:35:41.744Z,20.88
2018-05-18T04:36:12.964Z,20.80
2018-05-18T04:36:44.173Z,20.78
2018-05-18T04:37:16.405Z,20.82
2018-05-18T04:37:47.661Z,20.90
2018-05-18T04:38:18.871Z,21.08
2018-05-18T04:38:50.097Z,21.29
2018-05-18T04:39:21.334Z,21.32
2018-05-18T04:39:52.596Z,21.49
2018-05-18T04:40:23.804Z,21.98
2018-05-18T04:40:55.013Z,22.31
2018-05-18T04:41:26.233Z,22.61
2018-05-18T04:41:57.449Z,22.66
2018-05-18T04:42:28.710Z,23.17
2018-05-18T04:42:59.918Z,23.35
2018-05-18T04:43:31.117Z,23.61
2018-05-18T04:44:02.325Z,23.73
2018-05-18T04:44:33.576Z,23.94
2018-05-18T04:45:04.837Z,24.22
2018-05-18T04:45:36.069Z,24.54
2018-05-18T04:46:07.286Z,24.61
2018-05-18T04:46:38.486Z,24.82
2018-05-18T04:47:09.729Z,25.03
2018-05-18T04:47:40.923Z,25.18
2018-05-18T04:48:12.185Z,25.42
2018-05-18T04:48:43.393Z,25.56
2018-05-18T04:49:14.619Z,25.66
2018-05-18T04:49:45.841Z,25.56
2018-05-18T04:50:17.100Z,25.69
2018-05-18T04:50:48.325Z,25.69
2018-05-18T04:51:19.543Z,25.62
2018-05-18T04:51:50.763Z,25.54
2018-05-18T04:52:21.974Z,25.73
2018-05-18T04:52:53.196Z,25.76
2018-05-18T04:53:24.404Z,25.89
2018-05-18T04:53:55.665Z,26.02
2018-05-18T04:54:26.869Z,26.14
2018-05-18T04:54:58.094Z,26.08
2018-05-18T04:55:29.305Z,26.01
2018-05-18T04:56:00.560Z,25.76
2018-05-18T04:56:31.770Z,25.87
2018-05-18T04:57:02.989Z,25.72
2018-05-18T04:57:34.213Z,25.69
2018-05-18T04:58:05.484Z,25.97
2018-05-18T04:58:36.695Z,26.03
2018-05-18T04:59:07.912Z,25.77
2018-05-18T04:59:39.124Z,25.68
2018-05-18T05:00:10.353Z,25.84
2018-05-18T05:00:41.540Z,25.89
2018-05-18T05:01:12.805Z,26.27
2018-05-18T05:01:44.026Z,26.30
2018-05-18T05:02:15.264Z,26.19
2018-05-18T05:02:46.489Z,26.43
2018-05-18T05:03:17.706Z,26.50
2018-05-18T05:03:48.921Z,26.81
2018-05-18T05:04:20.134Z,26.82
2018-05-18T05:04:51.360Z,26.87
2018-05-18T05:05:22.667Z,26.91
2018-05-18T05:05:53.917Z,26.91
2018-05-18T05:06:25.152Z,26.54
2018-05-18T05:06:56.349Z,26.81
2018-05-18T05:07:27.556Z,26.78
2018-05-18T05:07:58.753Z,26.39
2018-05-18T05:08:29.973Z,26.51
2018-05-18T05:09:01.221Z,26.65
2018-05-18T05:09:32.427Z,26.81
2018-05-18T05:10:03.636Z,26.96
2018-05-18T05:10:34.849Z,27.02
2018-05-18T05:11:06.065Z,27.03
2018-05-18T05:11:37.269Z,27.24
2018-05-18T05:12:08.533Z,27.25
2018-05-18T05:12:39.826Z,27.18
2018-05-18T05:13:11.041Z,27.28
2018-05-18T05:13:42.244Z,26.76
2018-05-18T05:14:13.455Z,26.91
2018-05-18T05:14:44.657Z,26.67
2018-05-18T05:15:15.881Z,26.76
2018-05-18T05:15:47.114Z,26.67
2018-05-18T05:16:18.329Z,26.97
2018-05-18T05:16:49.541Z,27.16
2018-05-18T05:17:20.793Z,27.26
2018-05-18T05:17:52.070Z,27.22
2018-05-18T05:18:23.238Z,27.24
2018-05-18T05:18:54.437Z,26.58
2018-05-18T05:19:25.671Z,26.55
2018-05-18T05:19:56.881Z,26.92
2018-05-18T05:20:28.119Z,27.05
2018-05-18T05:20:59.332Z,27.15
2018-05-18T05:21:30.581Z,27.21
2018-05-18T05:22:01.805Z,27.18
2018-05-18T05:22:33.018Z,27.01
2018-05-18T05:23:04.221Z,27.04
2018-05-18T05:23:35.442Z,27.01
2018-05-18T05:24:06.682Z,26.86
2018-05-18T05:24:37.896Z,26.84
2018-05-18T05:25:09.147Z,26.46
2018-05-18T05:25:40.353Z,26.24
2018-05-18T05:26:11.593Z,26.09
2018-05-18T05:26:42.842Z,26.08
2018-05-18T05:27:14.088Z,25.81
2018-05-18T05:27:45.293Z,25.89
2018-05-18T05:28:16.542Z,26.04
2018-05-18T05:28:47.746Z,26.10
2018-05-18T05:29:18.976Z,26.17
2018-05-18T05:29:50.218Z,26.19
2018-05-18T05:30:21.485Z,26.13
2018-05-18T05:30:52.696Z,26.08
2018-05-18T05:31:23.898Z,25.90
2018-05-18T05:31:55.115Z,25.83
2018-05-18T05:32:26.325Z,25.72
2018-05-18T05:32:57.596Z,25.79
2018-05-18T05:33:28.838Z,25.89
2018-05-18T05:34:00.057Z,25.94
2018-05-18T05:34:31.260Z,25.94
2018-05-18T05:35:02.474Z,25.94
2018-05-18T05:35:33.693Z,26.02
2018-05-18T05:36:04.937Z,26.00
2018-05-18T05:36:36.144Z,25.95
2018-05-18T05:37:07.358Z,25.96
2018-05-18T05:37:38.564Z,26.02
2018-05-18T05:38:09.879Z,25.98
2018-05-18T05:38:41.154Z,25.92
2018-05-18T05:39:12.477Z,25.76
2018-05-18T05:39:43.813Z,25.62
2018-05-18T05:40:15.069Z,25.49
2018-05-18T05:40:46.364Z,25.37
2018-05-18T05:41:17.630Z,25.21
2018-05-18T05:41:48.908Z,25.11
2018-05-18T05:42:20.168Z,25.14
2018-05-18T05:42:51.443Z,25.13
2018-05-18T05:43:22.768Z,25.05
2018-05-18T05:43:54.097Z,25.02
2018-05-18T05:44:25.369Z,24.94
2018-05-18T05:44:56.690Z,24.95
2018-05-18T05:45:27.978Z,24.92
2018-05-18T05:45:59.220Z,24.77
2018-05-18T05:46:30.463Z,24.63
2018-05-18T05:47:01.718Z,24.59
2018-05-18T05:47:33.050Z,24.62
2018-05-18T05:48:04.314Z,24.65
2018-05-18T05:48:35.609Z,24.70
2018-05-18T05:49:06.871Z,24.73
2018-05-18T05:49:38.154Z,24.75
2018-05-18T05:50:09.450Z,24.84
2018-05-18T05:50:40.722Z,24.88
2018-05-18T05:51:11.973Z,24.91
2018-05-18T05:51:43.233Z,24.96
2018-05-18T05:52:14.553Z,24.87
2018-05-18T05:52:45.874Z,24.92
2018-05-18T05:53:17.120Z,24.91
2018-05-18T05:53:48.365Z,24.92
2018-05-18T05:54:19.595Z,24.93
2018-05-18T05:54:50.824Z,24.86
2018-05-18T05:55:22.078Z,24.81
2018-05-18T05:55:53.385Z,24.59
2018-05-18T05:56:24.651Z,24.61
2018-05-18T05:56:55.883Z,24.42
2018-05-18T05:57:27.122Z,24.31
2018-05-18T05:57:58.385Z,24.17
2018-05-18T05:58:29.682Z,24.12
2018-05-18T05:59:00.830Z,24.15
2018-05-18T05:59:32.073Z,24.11
2018-05-18T06:00:03.289Z,24.15
2018-05-18T06:00:34.538Z,24.18
2018-05-18T06:01:05.749Z,24.17
2018-05-18T06:01:37.029Z,24.29
2018-05-18T06:02:08.286Z,24.33
2018-05-18T06:02:39.497Z,24.24
2018-05-18T06:03:10.709Z,24.08
2018-05-18T06:03:41.919Z,23.97
2018-05-18T06:04:13.140Z,23.94
2018-05-18T06:04:44.358Z,23.90
2018-05-18T06:05:15.609Z,23.83
2018-05-18T06:05:46.857Z,23.95
2018-05-18T06:06:18.084Z,23.94
2018-05-18T06:06:49.313Z,24.03
2018-05-18T06:07:20.538Z,24.05
2018-05-18T06:07:51.749Z,24.08
2018-05-18T06:08:22.982Z,24.16
2018-05-18T06:08:54.203Z,24.25
2018-05-18T06:09:25.429Z,24.34
2018-05-18T06:09:56.640Z,24.43
2018-05-18T06:10:27.895Z,24.46
2018-05-18T06:10:59.121Z,24.49
2018-05-18T06:11:30.362Z,24.55
2018-05-18T06:12:02.244Z,24.68
2018-05-18T06:12:33.452Z,24.65
2018-05-18T06:13:04.705Z,24.60
2018-05-18T06:13:36.312Z,24.40
2018-05-18T06:14:07.529Z,24.42
2018-05-18T06:14:38.749Z,24.49
2018-05-18T06:15:09.969Z,24.52
2018-05-18T06:15:41.169Z,24.50
2018-05-18T06:16:12.461Z,24.56
2018-05-18T06:16:43.726Z,24.57
2018-05-18T06:17:15.008Z,24.55
2018-05-18T06:17:46.297Z,24.52
2018-05-18T06:18:17.616Z,24.54
2018-05-18T06:18:48.846Z,24.48
2018-05-18T06:19:20.061Z,24.49
2018-05-18T06:19:51.293Z,24.51
2018-05-18T06:20:22.496Z,24.48
2018-05-18T06:20:53.759Z,24.43
2018-05-18T06:21:24.973Z,24.41
2018-05-18T06:21:56.181Z,24.40
2018-05-18T06:22:27.429Z,24.40
2018-05-18T06:22:58.661Z,24.44
2018-05-18T06:23:29.882Z,24.50
2018-05-18T06:24:01.112Z,24.57
2018-05-18T06:24:32.337Z,24.54
2018-05-18T06:25:03.545Z,24.59
2018-05-18T06:25:34.753Z,24.64
2018-05-18T06:26:06.005Z,24.59
2018-05-18T06:26:37.235Z,24.50
2018-05-18T06:27:08.449Z,24.37
2018-05-18T06:27:39.649Z,24.28
2018-05-18T06:28:10.857Z,24.30
2018-05-18T06:28:42.133Z,24.34
2018-05-18T06:29:13.350Z,24.43
2018-05-18T06:29:44.567Z,24.49
2018-05-18T06:30:15.781Z,24.49
2018-05-18T06:30:47.000Z,24.31
2018-05-18T06:31:18.215Z,24.38
2018-05-18T06:31:49.435Z,24.38
2018-05-18T06:32:20.649Z,24.41
2018-05-18T06:32:51.859Z,24.37
2018-05-18T06:33:23.070Z,24.30
2018-05-18T06:33:54.312Z,24.29
2018-05-18T06:34:25.549Z,24.19
2018-05-18T06:34:56.791Z,24.12
2018-05-18T06:35:27.988Z,24.09
2018-05-18T06:35:59.454Z,24.07
2018-05-18T06:36:30.658Z,24.12
2018-05-18T06:37:01.869Z,24.16
2018-05-18T06:37:33.132Z,24.24
2018-05-18T06:38:04.363Z,24.25
2018-05-18T06:38:35.589Z,24.20
2018-05-18T06:39:06.805Z,24.19
2018-05-18T06:39:38.042Z,24.23
2018-05-18T06:40:09.330Z,24.27
2018-05-18T06:40:40.553Z,24.31
2018-05-18T06:41:11.903Z,24.22
2018-05-18T06:41:43.082Z,24.33
2018-05-18T06:42:14.374Z,24.37
2018-05-18T06:42:45.591Z,24.41
2018-05-18T06:43:16.797Z,24.52
2018-05-18T06:43:48.009Z,24.56
2018-05-18T06:44:19.230Z,24.49
2018-05-18T06:44:50.442Z,24.42
2018-05-18T06:45:21.706Z,24.28
2018-05-18T06:45:52.943Z,24.18
2018-05-18T06:46:24.181Z,24.15
2018-05-18T06:46:55.442Z,24.29